Time;durP1;ratioP1;P1;durP2;ratioP2;P2;SDS_P1;SDS_P2;PMS_P1;PMS_P2;Temp;Humidity;BMP_temperature;BMP_pressure;BME280_temperature;BME280_humidity;BME280_pressure;Samples;Min_cycle;Max_cycle;Signal;HPM_P1;HPM_P2
2023/04/06 00:01:01;;;;;;;46.87;19.07;;;;;;;1.89;75.18;101376.59;4762644;59;1138996;-75
2023/04/06 00:06:07;;;;;;;52.07;18.60;;;;;;;1.86;75.69;101375.82;4818892;59;1138995;-75
2023/04/06 00:11:12;;;;;;;45.37;17.23;;;;;;;1.84;76.05;101381.52;4757995;58;1138913;-75
2023/04/06 00:16:18;;;;;;;42.45;14.70;;;;;;;1.82;76.06;101380.73;4915315;58;1138897;-75
2023/04/06 00:21:25;;;;;;;44.27;14.30;;;;;;;1.74;76.08;101377.02;4905891;57;1138939;-75
2023/04/06 00:26:31;;;;;;;45.90;15.00;;;;;;;1.68;76.26;101381.12;4957817;58;1138840;-75
2023/04/06 00:31:37;;;;;;;46.30;15.30;;;;;;;1.70;76.54;101376.69;4913189;58;1138814;-75
2023/04/06 00:36:43;;;;;;;36.47;13.60;;;;;;;1.69;76.85;101376.28;4864562;58;1139070;-75
2023/04/06 00:41:53;;;;;;;35.83;14.00;;;;;;;1.68;76.83;101380.64;4864269;58;1138798;-75
2023/04/06 00:47:00;;;;;;;52.13;18.25;;;;;;;1.54;76.43;101376.25;4824319;58;1138889;-75
2023/04/06 00:52:05;;;;;;;43.48;14.65;;;;;;;1.49;76.73;101379.89;4807432;59;1138971;-76
2023/04/06 00:57:13;;;;;;;47.45;16.10;;;;;;;1.43;76.69;101378.30;4925596;58;1138673;-75
2023/04/06 01:02:20;;;;;;;31.43;11.60;;;;;;;1.24;76.72;101380.95;4934066;57;1138842;-75
2023/04/06 01:07:27;;;;;;;29.32;12.07;;;;;;;1.09;77.13;101390.02;4953478;58;1138904;-75
2023/04/06 01:12:38;;;;;;;28.43;10.47;;;;;;;1.00;77.58;101391.11;4933408;57;1138876;-75
2023/04/06 01:17:45;;;;;;;21.97;9.45;;;;;;;0.88;77.56;101382.30;5015133;57;1138962;-75
2023/04/06 01:22:53;;;;;;;30.90;10.93;;;;;;;0.93;78.64;101387.38;4858406;58;1136734;-75
2023/04/06 01:27:59;;;;;;;23.53;10.40;;;;;;;0.85;78.18;101382.80;4953545;58;1138725;-75
2023/04/06 01:33:06;;;;;;;35.10;10.37;;;;;;;0.85;79.21;101383.66;4870381;58;1139126;-76
2023/04/06 01:38:16;;;;;;;28.90;11.12;;;;;;;0.92;79.66;101381.75;4806276;58;1138986;-75
2023/04/06 01:43:23;;;;;;;27.25;10.45;;;;;;;0.99;79.71;101383.33;4833688;59;1138946;-75
2023/04/06 01:48:36;;;;;;;25.62;10.45;;;;;;;0.99;79.63;101375.07;4816551;58;1138887;-75
2023/04/06 01:53:43;;;;;;;39.90;12.43;;;;;;;0.84;79.35;101369.37;4875033;58;1138935;-75
2023/04/06 01:58:49;;;;;;;28.43;12.57;;;;;;;0.84;79.35;101369.37;4997767;57;1138813;-75
2023/04/06 02:03:55;;;;;;;29.40;11.63;;;;;;;0.85;80.02;101371.95;5028899;57;1138845;-74
2023/04/06 02:09:02;;;;;;;30.17;12.40;;;;;;;0.75;79.68;101373.52;4979142;57;1138696;-75
2023/04/06 02:14:08;;;;;;;31.47;12.77;;;;;;;0.64;79.64;101376.34;4971179;57;1138876;-76
2023/04/06 02:19:15;;;;;;;32.63;12.47;;;;;;;0.51;79.65;101372.31;5016639;57;1138765;-75
2023/04/06 02:24:21;;;;;;;37.23;14.25;;;;;;;0.45;80.29;101375.07;5084005;56;1139484;-75
2023/04/06 02:29:27;;;;;;;30.47;11.73;;;;;;;0.45;80.77;101371.17;5071432;56;1138955;-75
2023/04/06 02:34:33;;;;;;;38.00;13.50;;;;;;;0.50;81.13;101370.59;5082876;56;1138794;-75
2023/04/06 02:39:39;;;;;;;29.73;12.47;;;;;;;0.38;80.88;101366.97;5018438;57;1138670;-75
2023/04/06 02:44:46;;;;;;;26.67;12.53;;;;;;;0.38;80.88;101366.97;5029583;57;1138608;-75
2023/04/06 02:49:52;;;;;;;31.07;13.05;;;;;;;0.32;81.10;101375.76;4864307;58;1138944;-74
2023/04/06 02:54:58;;;;;;;29.47;12.07;;;;;;;0.25;81.28;101370.30;5031264;57;1138853;-75
2023/04/06 03:00:06;;;;;;;25.10;11.57;;;;;;;0.22;81.74;101373.81;4864026;58;1138986;-74
2023/04/06 03:05:14;;;;;;;41.57;14.13;;;;;;;0.22;82.00;101375.11;5014506;57;1138756;-75
2023/04/06 03:10:21;;;;;;;44.07;14.17;;;;;;;0.29;82.57;101386.26;4881707;59;1138764;-75
2023/04/06 03:15:27;;;;;;;37.03;13.93;;;;;;;0.30;82.67;101383.63;5008595;57;1138684;-75
2023/04/06 03:20:35;;;;;;;40.77;15.00;;;;;;;0.30;82.76;101391.88;4991693;57;1138703;-74
2023/04/06 03:25:40;;;;;;;32.23;13.40;;;;;;;0.29;82.81;101390.16;4883775;58;1138760;-75
2023/04/06 03:30:48;;;;;;;36.10;13.20;;;;;;;0.27;82.86;101393.23;4864761;58;1138809;-75
2023/04/06 03:35:55;;;;;;;33.38;14.63;;;;;;;0.25;82.62;101389.36;4872630;58;1139196;-75
2023/04/06 03:41:02;;;;;;;42.53;15.33;;;;;;;0.21;82.77;101391.61;4925894;58;1138807;-75
2023/04/06 03:46:09;;;;;;;36.26;13.40;;;;;;;0.18;82.68;101401.22;4923053;58;1138903;-76
2023/04/06 03:51:15;;;;;;;38.02;14.35;;;;;;;0.13;82.76;101407.83;5066562;57;1138879;-75
2023/04/06 03:56:21;;;;;;;39.38;14.75;;;;;;;0.10;82.82;101405.29;4925812;58;1138993;-75
2023/04/06 04:01:27;;;;;;;49.33;16.30;;;;;;;0.04;82.66;101413.64;5081510;57;1139083;-75
2023/04/06 04:06:35;;;;;;;40.45;15.48;;;;;;;-0.03;82.67;101420.73;5081263;57;1138707;-75
2023/04/06 04:11:41;;;;;;;40.90;15.63;;;;;;;-0.10;82.72;101421.72;5049597;57;1140923;-74
2023/04/06 04:16:48;;;;;;;37.90;14.73;;;;;;;-0.13;83.16;101415.27;5011879;57;1140907;-75
2023/04/06 04:21:53;;;;;;;39.30;13.87;;;;;;;-0.14;83.08;101418.75;4998164;58;1140862;-75
2023/04/06 04:27:01;;;;;;;48.17;17.23;;;;;;;-0.28;82.41;101417.72;5016590;57;1140813;-75
2023/04/06 04:32:08;;;;;;;50.07;18.03;;;;;;;-0.45;82.56;101427.13;4998056;58;1140848;-75
2023/04/06 04:37:14;;;;;;;43.60;17.17;;;;;;;-0.45;83.50;101427.56;4998425;57;1141179;-74
2023/04/06 04:42:24;;;;;;;41.10;16.82;;;;;;;-0.38;84.39;101420.95;4993825;58;1140906;-75
2023/04/06 04:47:32;;;;;;;54.63;18.93;;;;;;;-0.28;84.67;101422.06;5023583;56;1141006;-75
2023/04/06 04:52:39;;;;;;;80.70;31.30;;;;;;;-0.24;84.58;101419.38;4883692;59;1140814;-74
2023/04/06 04:57:50;;;;;;;175.27;64.03;;;;;;;-0.33;84.48;101425.21;4873087;58;1141021;-75
2023/04/06 05:02:57;;;;;;;136.03;50.83;;;;;;;-0.43;84.91;101420.16;4882987;59;1142873;-74
2023/04/06 05:08:05;;;;;;;62.60;26.95;;;;;;;-0.46;85.47;101435.80;4833914;58;1143111;-74
2023/04/06 05:13:15;;;;;;;69.23;29.97;;;;;;;-0.45;86.30;101436.66;4891118;58;1141124;-73
2023/04/06 05:18:22;;;;;;;70.10;29.10;;;;;;;-0.45;86.82;101436.66;4905415;58;1140820;-76
2023/04/06 05:23:28;;;;;;;68.67;31.73;;;;;;;-0.37;87.81;101447.35;4881638;59;1140759;-76
2023/04/06 05:28:36;;;;;;;67.33;30.40;;;;;;;-0.27;88.38;101444.13;4838868;59;1140850;-76
2023/04/06 05:33:43;;;;;;;62.97;27.87;;;;;;;-0.12;89.34;101441.69;4885216;58;1140809;-76
2023/04/06 05:38:52;;;;;;;63.40;23.33;;;;;;;0.05;89.90;101444.83;4929789;57;1140990;-76
2023/04/06 05:44:02;;;;;;;53.20;24.75;;;;;;;0.21;90.17;101438.44;4999481;56;1139014;-75
2023/04/06 05:49:08;;;;;;;52.47;21.67;;;;;;;0.44;91.13;101425.41;4998836;57;1138737;-76
2023/04/06 05:54:14;;;;;;;72.60;32.33;;;;;;;0.51;90.46;101425.66;4957587;57;1138621;-77
2023/04/06 05:59:20;;;;;;;65.25;28.57;;;;;;;0.61;91.82;101422.81;4990396;56;1138649;-76
2023/04/06 06:04:26;;;;;;;76.83;24.13;;;;;;;0.99;93.89;101429.77;5033440;57;1138930;-76
2023/04/06 06:09:32;;;;;;;57.20;23.30;;;;;;;1.66;92.65;101428.09;4868714;58;1138853;-77
2023/04/06 06:14:40;;;;;;;42.03;17.40;;;;;;;1.66;92.65;101428.09;4970741;57;1138956;-76
2023/04/06 06:19:46;;;;;;;62.62;25.32;;;;;;;1.86;91.48;101430.59;4858403;59;1138806;-71
2023/04/06 06:24:53;;;;;;;61.00;24.43;;;;;;;2.08;90.23;101433.03;4773012;59;1138824;-78
2023/04/06 06:29:59;;;;;;;51.50;21.93;;;;;;;2.34;89.42;101424.00;4946675;57;1138764;-77
2023/04/06 06:35:07;;;;;;;43.73;17.50;;;;;;;2.59;87.75;101428.52;5023800;57;1138635;-77
2023/04/06 06:40:15;;;;;;;27.43;12.03;;;;;;;2.83;85.75;101428.61;4902818;58;1138801;-76
2023/04/06 06:45:21;;;;;;;28.93;11.20;;;;;;;3.02;84.28;101431.50;5015093;57;1138849;-76
2023/04/06 06:50:28;;;;;;;39.20;15.87;;;;;;;3.26;84.12;101425.92;5015974;57;1138930;-77
2023/04/06 06:55:34;;;;;;;33.80;13.35;;;;;;;3.40;82.28;101426.77;4909726;58;1138741;-76
2023/04/06 07:00:40;;;;;;;41.45;17.00;;;;;;;3.56;77.96;101430.58;4875108;58;1138848;-77
2023/04/06 07:05:56;;;;;;;31.80;13.28;;;;;;;3.79;81.05;101427.18;4878092;58;1138936;-76
2023/04/06 07:10:58;;;;;;;36.75;12.85;;;;;;;3.99;78.17;101426.45;4830326;58;1138795;-77
2023/04/06 07:16:04;;;;;;;28.93;14.23;;;;;;;4.21;76.33;101421.70;4873025;59;1138725;-75
2023/04/06 07:21:10;;;;;;;28.93;11.17;;;;;;;4.42;75.47;101423.13;4883361;58;1138740;-78
2023/04/06 07:26:15;;;;;;;40.63;15.50;;;;;;;4.72;76.56;101425.89;5037109;56;1138829;-78
2023/04/06 07:31:21;;;;;;;37.20;11.40;;;;;;;4.91;72.31;101418.13;5049753;57;1138628;-76
2023/04/06 07:36:27;;;;;;;14.93;7.77;;;;;;;5.04;69.49;101420.66;5014322;57;1138621;-76
2023/04/06 07:41:33;;;;;;;21.23;8.53;;;;;;;5.06;70.26;101417.52;5029042;57;1136811;-77
2023/04/06 07:46:39;;;;;;;9.00;6.05;;;;;;;5.10;67.20;101424.81;5100890;57;1136774;-77
2023/04/06 07:51:45;;;;;;;23.82;7.36;;;;;;;5.14;67.30;101427.26;4998264;58;1134720;-77
2023/04/06 07:56:51;;;;;;;9.67;5.43;;;;;;;5.23;67.33;101429.95;5075450;57;1136681;-77
2023/04/06 08:01:57;;;;;;;12.80;6.60;;;;;;;5.36;64.65;101426.36;5004504;57;1134727;-77
2023/04/06 08:07:02;;;;;;;8.77;5.20;;;;;;;5.42;64.25;101426.11;5018971;57;1136742;-77
2023/04/06 08:12:08;;;;;;;15.57;7.37;;;;;;;5.59;64.65;101425.80;4999125;57;1134699;-76
2023/04/06 08:17:14;;;;;;;10.27;5.90;;;;;;;5.76;66.80;101417.67;4998811;57;1136657;-76
2023/04/06 08:22:19;;;;;;;12.07;6.63;;;;;;;5.88;66.40;101407.52;5005445;57;1136628;-77
2023/04/06 08:27:25;;;;;;;23.93;10.40;;;;;;;5.97;66.02;101408.87;4986930;57;1136631;-74
2023/04/06 08:32:31;;;;;;;14.00;6.80;;;;;;;6.16;63.45;101404.51;4995959;57;1138721;-75
2023/04/06 08:37:37;;;;;;;11.18;6.12;;;;;;;6.35;64.47;101401.44;5018282;57;1136800;-72
2023/04/06 08:42:45;;;;;;;16.47;5.93;;;;;;;6.50;62.53;101405.13;4998413;57;1136619;-77
2023/04/06 08:47:55;;;;;;;11.03;5.60;;;;;;;6.63;64.43;101410.20;4981801;57;1136798;-78
2023/04/06 08:53:02;;;;;;;11.67;6.40;;;;;;;6.80;61.17;101404.61;5008743;57;1136846;-77
2023/04/06 08:58:09;;;;;;;8.67;5.47;;;;;;;6.84;60.80;101404.40;4978851;57;1136761;-78
2023/04/06 09:03:15;;;;;;;12.30;5.83;;;;;;;6.84;60.17;101404.40;4934937;58;1134857;-77
2023/04/06 09:08:21;;;;;;;6.87;4.80;;;;;;;7.05;61.87;101409.06;4934807;58;1136760;-77
2023/04/06 09:13:27;;;;;;;21.23;7.57;;;;;;;7.22;61.32;101403.83;4967526;57;1134536;-78
2023/04/06 09:18:36;;;;;;;12.83;6.77;;;;;;;7.34;59.43;101399.73;4996320;57;1142282;-77
2023/04/06 09:23:41;;;;;;;9.90;6.13;;;;;;;7.47;61.24;101396.05;5014752;57;1136871;-78
2023/04/06 09:28:54;;;;;;;6.55;4.08;;;;;;;7.76;61.55;101394.08;5015605;57;1134607;-77
2023/04/06 09:34:00;;;;;;;12.20;6.07;;;;;;;7.86;56.06;101394.44;5035846;57;1134558;-78
2023/04/06 09:39:07;;;;;;;13.10;5.27;;;;;;;7.70;58.57;101387.34;5015812;57;1136709;-80
2023/04/06 09:44:14;;;;;;;44.43;26.13;;;;;;;7.82;60.71;101387.16;5015533;57;1136851;-78
2023/04/06 09:49:20;;;;;;;14.13;6.73;;;;;;;7.97;56.06;101378.45;4874308;58;1138749;-78
2023/04/06 09:54:30;;;;;;;8.67;4.50;;;;;;;8.03;56.45;101382.09;4873514;59;1136573;-77
2023/04/06 10:00:11;;;;;;;7.23;5.57;;;;;;;8.15;58.59;101381.04;4873697;59;1134549;-79
2023/04/06 10:05:27;;;;;;;9.53;5.60;;;;;;;8.25;54.90;101380.45;4873843;59;1134614;-78
2023/04/06 10:10:32;;;;;;;9.33;5.20;;;;;;;8.37;59.00;101375.04;4890703;58;1141815;-77
2023/04/06 10:15:40;;;;;;;14.83;8.38;;;;;;;8.47;58.34;101367.00;4882695;58;1134680;-78
2023/04/06 10:20:56;;;;;;;8.38;5.70;;;;;;;8.62;55.30;101364.83;4952565;58;1136779;-79
2023/04/06 10:26:03;;;;;;;8.93;4.70;;;;;;;8.72;57.47;101369.95;4873840;59;1134762;-79
2023/04/06 10:31:09;;;;;;;9.53;5.10;;;;;;;8.91;57.53;101365.81;4815735;59;1134623;-77
2023/04/06 10:36:17;;;;;;;11.83;4.93;;;;;;;8.80;51.95;101356.35;4873631;59;1134838;-79
2023/04/06 10:41:23;;;;;;;26.53;6.63;;;;;;;8.84;55.84;101354.39;4873559;58;1136625;-77
2023/04/06 10:46:34;;;;;;;12.57;5.77;;;;;;;8.77;55.16;101348.14;4943576;58;1136679;-77
2023/04/06 10:51:40;;;;;;;8.25;4.85;;;;;;;8.89;54.79;101337.34;4952218;57;1136902;-79
2023/04/06 10:56:46;;;;;;;8.73;5.63;;;;;;;9.05;54.13;101346.08;4879410;58;1134638;-77
2023/04/06 11:01:52;;;;;;;15.65;5.30;;;;;;;9.20;54.93;101335.56;4869103;59;1134619;-77
2023/04/06 11:06:58;;;;;;;13.60;4.60;;;;;;;9.25;56.05;101330.41;4892542;58;1136706;-79
2023/04/06 11:12:04;;;;;;;16.83;6.50;;;;;;;9.26;52.40;101328.61;4913054;57;1136901;-79
2023/04/06 11:17:09;;;;;;;10.90;5.70;;;;;;;9.22;54.34;101325.30;4913252;57;1136684;-78
2023/04/06 11:22:16;;;;;;;8.23;5.37;;;;;;;9.44;53.88;101323.56;4889567;58;1136716;-79
2023/04/06 11:27:22;;;;;;;8.37;4.90;;;;;;;9.55;55.65;101312.34;4873294;58;1134755;-80
2023/04/06 11:32:29;;;;;;;9.33;5.23;;;;;;;9.67;54.12;101315.55;4873602;58;1134691;-79
2023/04/06 11:37:35;;;;;;;20.47;8.57;;;;;;;9.73;54.06;101310.77;4897381;58;1142776;-78
2023/04/06 11:42:40;;;;;;;13.35;6.53;;;;;;;9.77;51.91;101308.31;4929650;57;1136764;-78
2023/04/06 11:47:46;;;;;;;17.43;10.43;;;;;;;9.75;51.69;101296.14;4914542;58;1136648;-80
2023/04/06 11:53:02;;;;;;;12.47;5.65;;;;;;;9.71;51.23;101296.80;4881649;58;1138757;-79
2023/04/06 11:58:08;;;;;;;20.70;13.03;;;;;;;9.81;52.48;101285.17;4953804;58;1136992;-80
2023/04/06 12:03:14;;;;;;;8.13;5.20;;;;;;;9.93;50.86;101283.59;4880208;57;1140981;-78
2023/04/06 12:08:22;;;;;;;33.53;11.23;;;;;;;10.00;50.42;101277.80;4821037;57;1136891;-77
2023/04/06 12:13:27;;;;;;;12.80;6.27;;;;;;;10.05;51.88;101279.69;4949806;58;1143000;-78
2023/04/06 12:18:33;;;;;;;10.70;7.10;;;;;;;10.13;50.64;101273.43;4904906;57;1255502;-77
2023/04/06 12:23:38;;;;;;;10.67;6.60;;;;;;;10.13;51.59;101269.94;4997489;57;1140951;-78
2023/04/06 12:28:44;;;;;;;8.35;5.58;;;;;;;10.13;51.14;101263.33;4925812;57;1140839;-77
2023/04/06 12:33:52;;;;;;;27.60;13.35;;;;;;;10.25;52.04;101260.41;4807385;59;1138818;-79
2023/04/06 12:38:57;;;;;;;12.03;6.92;;;;;;;10.41;52.21;101270.36;4889722;57;1142956;-78
2023/04/06 12:44:03;;;;;;;11.13;6.67;;;;;;;10.48;50.92;101256.66;5015279;57;1140874;-78
2023/04/06 12:49:09;;;;;;;11.80;7.17;;;;;;;10.48;51.66;101248.72;4869174;57;1141002;-79
2023/04/06 12:54:15;;;;;;;10.67;6.77;;;;;;;10.53;51.83;101241.34;4924629;57;1140939;-77
2023/04/06 12:59:21;;;;;;;12.23;7.80;;;;;;;10.69;51.10;101242.97;5122805;56;1140995;-79
2023/04/06 13:04:26;;;;;;;18.57;8.10;;;;;;;10.67;51.28;101229.84;5092779;56;1140855;-80
2023/04/06 13:09:32;;;;;;;8.27;5.77;;;;;;;10.68;49.42;101222.28;5025892;56;1140901;-77
2023/04/06 13:14:39;;;;;;;10.67;5.80;;;;;;;10.57;46.44;101219.01;5077684;56;1138716;-78
2023/04/06 13:19:45;;;;;;;15.83;8.43;;;;;;;10.58;50.83;101216.73;5060027;56;1140694;-76
2023/04/06 13:24:50;;;;;;;10.50;6.83;;;;;;;10.66;49.87;101209.63;5012000;56;1140848;-79
2023/04/06 13:29:57;;;;;;;20.33;9.07;;;;;;;10.75;49.48;101195.77;5090813;56;1140989;-75
2023/04/06 13:35:03;;;;;;;13.60;7.83;;;;;;;10.84;51.76;101204.43;5114474;56;1140854;-78
2023/04/06 13:40:10;;;;;;;44.98;7.62;;;;;;;10.95;49.21;101201.52;5111444;56;1140956;-76
2023/04/06 13:45:15;;;;;;;20.03;7.90;;;;;;;10.85;48.87;101198.16;5080330;56;1140931;-76
2023/04/06 13:50:21;;;;;;;10.10;6.80;;;;;;;10.84;50.42;101195.64;5114467;56;1140992;-78
2023/04/06 13:55:27;;;;;;;21.97;9.20;;;;;;;10.82;49.76;101189.13;5090414;56;1140830;-75
2023/04/06 14:00:32;;;;;;;9.83;4.97;;;;;;;10.89;49.76;101179.80;5064831;56;1140661;-78
2023/04/06 14:05:38;;;;;;;8.80;5.07;;;;;;;10.85;50.18;101168.20;5138302;56;1138750;-76
2023/04/06 14:10:43;;;;;;;10.53;6.65;;;;;;;10.96;49.70;101168.81;5011432;56;1138762;-76
2023/04/06 14:15:52;;;;;;;9.10;5.83;;;;;;;10.99;49.71;101172.58;5045299;56;1140934;-77
2023/04/06 14:21:01;;;;;;;10.82;7.12;;;;;;;11.09;49.75;101171.82;5022412;57;1138938;-77
2023/04/06 14:26:09;;;;;;;10.23;6.87;;;;;;;11.18;50.18;101172.97;5016347;56;1140856;-80
2023/04/06 14:31:16;;;;;;;18.37;10.00;;;;;;;11.23;50.16;101166.89;5060482;57;1140854;-77
2023/04/06 14:36:21;;;;;;;18.07;6.17;;;;;;;11.27;49.26;101160.44;4916526;58;1143037;-78
2023/04/06 14:41:27;;;;;;;13.77;6.60;;;;;;;11.19;47.83;101162.27;4989558;57;1140841;-76
2023/04/06 14:46:33;;;;;;;34.67;8.70;;;;;;;11.08;47.62;101159.53;4895066;58;1140919;-69
2023/04/06 14:51:40;;;;;;;22.43;7.17;;;;;;;10.98;48.97;101156.32;5050985;57;1140959;-67
2023/04/06 14:56:45;;;;;;;97.27;13.28;;;;;;;10.92;48.97;101149.64;5030536;57;1140818;-69
2023/04/06 15:01:51;;;;;;;14.00;7.55;;;;;;;10.79;48.58;101156.73;5094507;56;1142891;-71
2023/04/06 15:06:57;;;;;;;7.47;5.12;;;;;;;10.80;49.11;101153.98;5101283;56;1140938;-70
2023/04/06 15:12:03;;;;;;;11.60;5.53;;;;;;;10.83;48.31;101146.31;5088756;56;1138842;-69
2023/04/06 15:17:08;;;;;;;8.57;5.30;;;;;;;10.91;49.38;101142.65;5086495;56;1141013;-69
2023/04/06 15:22:14;;;;;;;10.87;5.67;;;;;;;11.01;48.07;101137.55;5010778;57;1138786;-69
2023/04/06 15:27:20;;;;;;;13.63;9.13;;;;;;;11.04;48.04;101135.55;5071527;57;1140757;-66
2023/04/06 15:32:26;;;;;;;15.67;6.73;;;;;;;11.05;47.88;101137.24;5004793;57;1140839;-72
2023/04/06 15:37:32;;;;;;;11.50;7.10;;;;;;;11.10;48.76;101125.02;5011303;57;1140866;-67
2023/04/06 15:42:37;;;;;;;8.60;6.07;;;;;;;11.10;48.75;101131.64;5072835;56;1140908;-68
2023/04/06 15:47:45;;;;;;;11.20;6.03;;;;;;;10.99;47.60;101133.72;5047661;56;1138759;-73
2023/04/06 15:52:50;;;;;;;14.85;6.83;;;;;;;10.74;48.94;101135.02;5051560;57;1140877;-75
2023/04/06 15:57:56;;;;;;;19.37;8.60;;;;;;;10.67;48.95;101122.70;5010678;57;1141027;-77
2023/04/06 16:03:02;;;;;;;26.47;11.83;;;;;;;10.72;48.71;101124.54;5058881;56;1140828;-77
2023/04/06 16:08:07;;;;;;;10.97;6.40;;;;;;;10.55;48.61;101128.80;5049957;57;1142886;-75
2023/04/06 16:13:13;;;;;;;9.50;6.27;;;;;;;10.42;49.20;101126.62;4977975;57;1140835;-77
2023/04/06 16:18:19;;;;;;;30.60;12.80;;;;;;;10.37;49.89;101123.45;5004682;57;1139020;-77
2023/04/06 16:23:26;;;;;;;29.77;11.80;;;;;;;10.41;50.17;101114.34;5056965;57;1143178;-77
2023/04/06 16:28:31;;;;;;;13.37;6.00;;;;;;;10.35;50.42;101124.03;4873155;59;1143185;-76
2023/04/06 16:33:37;;;;;;;17.47;8.40;;;;;;;10.36;48.95;101108.55;4883244;59;1141006;-75
2023/04/06 16:38:43;;;;;;;19.73;7.20;;;;;;;10.22;50.48;101126.66;4965023;58;1140859;-76
2023/04/06 16:43:49;;;;;;;15.03;6.33;;;;;;;10.16;51.02;101121.73;4868031;59;1141050;-78
2023/04/06 16:48:55;;;;;;;11.50;7.43;;;;;;;10.04;50.98;101114.14;4827173;59;1140956;-75
2023/04/06 16:54:02;;;;;;;13.08;7.42;;;;;;;9.93;51.33;101115.30;4886551;59;1140846;-77
2023/04/06 16:59:09;;;;;;;14.17;8.43;;;;;;;9.89;52.19;101115.14;4837818;59;1138862;-76
2023/04/06 17:04:15;;;;;;;13.00;7.27;;;;;;;9.82;51.92;101113.83;4867515;58;1138813;-77
2023/04/06 17:09:20;;;;;;;17.77;10.03;;;;;;;9.73;52.44;101111.80;4887738;58;1136708;-72
2023/04/06 17:14:26;;;;;;;17.97;9.33;;;;;;;9.71;53.10;101115.01;4936545;57;1138769;-75
2023/04/06 17:19:32;;;;;;;18.60;10.10;;;;;;;9.65;52.58;101107.00;4987413;57;1136609;-75
2023/04/06 17:24:37;;;;;;;30.37;14.37;;;;;;;9.51;52.89;101101.28;4883557;59;1138715;-78
2023/04/06 17:29:43;;;;;;;21.53;10.87;;;;;;;9.50;53.07;101107.51;4863028;59;1180105;-77
2023/04/06 17:34:49;;;;;;;24.27;11.70;;;;;;;9.44;53.58;101116.31;4995020;57;1138727;-76
2023/04/06 17:39:55;;;;;;;37.30;19.27;;;;;;;9.41;53.51;101108.58;4801208;59;1174709;-75
2023/04/06 17:45:00;;;;;;;34.57;16.80;;;;;;;9.31;54.37;101113.59;4992260;57;1138711;-75
2023/04/06 17:50:07;;;;;;;52.17;26.68;;;;;;;9.30;54.72;101113.22;4994912;57;1157122;-78
2023/04/06 17:55:13;;;;;;;74.70;33.07;;;;;;;9.32;54.64;101110.48;4821893;58;1138997;-72
2023/04/06 18:00:23;;;;;;;70.73;36.57;;;;;;;9.30;55.00;101116.33;5023943;57;1138886;-79
2023/04/06 18:05:26;;;;;;;79.37;39.40;;;;;;;9.26;54.92;101113.50;4965699;57;1170336;-78
2023/04/06 18:10:32;;;;;;;120.77;55.87;;;;;;;9.16;55.39;101109.28;4873515;58;1138895;-78
2023/04/06 18:15:39;;;;;;;122.47;51.93;;;;;;;9.17;55.82;101112.27;5017348;57;1140880;-75
2023/04/06 18:20:44;;;;;;;131.53;61.83;;;;;;;9.11;55.97;101112.66;4926295;59;1140792;-77
2023/04/06 18:25:50;;;;;;;123.63;52.20;;;;;;;9.05;55.92;101115.20;5005006;58;1140936;-76
2023/04/06 18:30:56;;;;;;;100.35;41.55;;;;;;;8.93;56.11;101115.11;4862369;57;1141121;-75
2023/04/06 18:36:01;;;;;;;77.73;35.57;;;;;;;8.88;56.88;101118.48;4910300;58;1141052;-78
2023/04/06 18:41:07;;;;;;;32.13;17.93;;;;;;;8.84;57.17;101118.33;4925869;57;1139089;-78
2023/04/06 18:46:14;;;;;;;24.53;12.87;;;;;;;8.81;57.33;101118.88;5047245;57;1138871;-77
2023/04/06 18:51:22;;;;;;;24.65;13.15;;;;;;;8.81;57.71;101122.84;4868957;58;1138851;-78
2023/04/06 18:56:27;;;;;;;28.37;13.87;;;;;;;8.79;58.29;101119.44;5068983;57;1138954;-77
2023/04/06 19:01:33;;;;;;;19.30;10.50;;;;;;;8.78;58.80;101120.38;5092418;57;1138774;-78
2023/04/06 19:06:39;;;;;;;15.53;8.83;;;;;;;8.77;58.80;101121.31;5003651;57;1138950;-77
2023/04/06 19:11:44;;;;;;;11.23;6.50;;;;;;;8.64;58.50;101124.79;4831232;59;1136785;-77
2023/04/06 19:16:51;;;;;;;10.32;6.75;;;;;;;8.44;59.05;101124.17;4819079;58;1137608;-77
2023/04/06 19:21:58;;;;;;;13.62;6.42;;;;;;;8.23;59.83;101129.84;4757492;59;1136809;-76
2023/04/06 19:27:04;;;;;;;19.83;7.03;;;;;;;8.16;60.37;101128.48;4862450;58;1136875;-78
2023/04/06 19:32:11;;;;;;;14.23;7.47;;;;;;;8.14;60.90;101129.89;4815829;59;1136644;-76
2023/04/06 19:37:17;;;;;;;18.00;7.80;;;;;;;8.03;61.14;101133.61;4896857;57;1136673;-78
2023/04/06 19:42:24;;;;;;;15.00;7.40;;;;;;;7.93;61.96;101135.09;5069105;57;1136722;-76
2023/04/06 19:47:31;;;;;;;24.47;13.13;;;;;;;7.73;63.71;101134.87;5091279;57;1136618;-77
2023/04/06 19:52:38;;;;;;;15.07;7.67;;;;;;;7.64;65.12;101139.33;4872772;59;1138797;-77
2023/04/06 19:57:43;;;;;;;21.80;7.10;;;;;;;7.56;66.61;101145.03;4828028;59;1136547;-76
2023/04/06 20:02:49;;;;;;;14.30;8.93;;;;;;;7.32;68.77;101143.75;4964666;58;1136802;-77
2023/04/06 20:07:54;;;;;;;15.60;7.00;;;;;;;7.21;69.33;101140.83;4869263;59;1136653;-77
2023/04/06 20:13:00;;;;;;;11.45;5.90;;;;;;;7.11;69.74;101142.26;4875224;59;1136757;-77
2023/04/06 20:18:06;;;;;;;9.83;6.07;;;;;;;7.05;70.37;101152.16;5049785;57;1136663;-77
2023/04/06 20:23:12;;;;;;;21.02;6.75;;;;;;;6.96;70.36;101150.49;4981112;56;1134608;-76
2023/04/06 20:28:17;;;;;;;11.97;5.60;;;;;;;6.83;70.89;101151.60;5012996;57;1136725;-76
2023/04/06 20:33:23;;;;;;;13.50;6.90;;;;;;;6.78;71.13;101158.02;4887451;58;1136676;-77
2023/04/06 20:38:30;;;;;;;13.30;7.10;;;;;;;6.70;71.26;101155.80;4951732;57;1136938;-78
2023/04/06 20:43:35;;;;;;;14.50;6.83;;;;;;;6.64;71.39;101149.06;5048668;57;1136875;-78
2023/04/06 20:48:41;;;;;;;15.77;7.57;;;;;;;6.66;71.62;101148.53;5010435;57;1136633;-78
2023/04/06 20:53:47;;;;;;;19.30;7.87;;;;;;;6.63;71.59;101147.83;5013658;57;1136677;-77
2023/04/06 20:58:53;;;;;;;30.93;9.87;;;;;;;6.60;71.69;101142.26;4932468;57;1136700;-76
2023/04/06 21:03:58;;;;;;;20.00;9.53;;;;;;;6.63;71.71;101141.26;5050644;57;1136630;-77
2023/04/06 21:09:04;;;;;;;35.30;13.47;;;;;;;6.68;71.61;101131.37;5035229;57;1136704;-75
2023/04/06 21:14:10;;;;;;;26.00;9.77;;;;;;;6.68;71.32;101136.16;4849711;58;1138844;-78
2023/04/06 21:19:16;;;;;;;18.60;8.47;;;;;;;6.70;71.11;101135.63;4920939;58;1137411;-77
2023/04/06 21:24:21;;;;;;;18.82;8.08;;;;;;;6.73;71.19;101144.25;5015868;57;1136657;-76
2023/04/06 21:29:27;;;;;;;17.35;8.63;;;;;;;6.67;70.91;101134.92;4976099;58;1137131;-76
2023/04/06 21:34:33;;;;;;;24.00;8.00;;;;;;;6.63;71.16;101131.59;4883587;59;1136589;-74
2023/04/06 21:39:38;;;;;;;17.43;7.57;;;;;;;6.64;71.25;101135.92;4864527;58;1136612;-74
2023/04/06 21:44:44;;;;;;;18.45;8.58;;;;;;;6.62;71.36;101137.78;4862558;58;1136797;-75
2023/04/06 21:49:50;;;;;;;15.53;6.53;;;;;;;6.61;71.71;101127.34;4867496;58;1136828;-77
2023/04/06 21:54:55;;;;;;;17.77;8.20;;;;;;;6.54;71.14;101133.39;4992947;57;1136863;-77
2023/04/06 22:00:01;;;;;;;14.97;6.57;;;;;;;6.46;71.40;101132.92;4984321;57;1136835;-77
2023/04/06 22:05:07;;;;;;;13.10;6.45;;;;;;;6.44;71.60;101126.03;4866307;56;1136888;-76
2023/04/06 22:10:14;;;;;;;14.10;7.34;;;;;;;6.33;71.09;101131.84;4973276;58;1136737;-77
2023/04/06 22:15:20;;;;;;;14.60;5.62;;;;;;;6.26;71.28;101123.89;4955520;58;1136775;-77
2023/04/06 22:20:28;;;;;;;12.77;6.13;;;;;;;6.09;70.48;101128.67;4821160;59;1136792;-78
2023/04/06 22:25:33;;;;;;;20.85;6.75;;;;;;;5.97;71.08;101124.00;4914733;58;1136743;-76
2023/04/06 22:30:39;;;;;;;12.90;5.50;;;;;;;5.93;71.74;101125.94;4814648;59;1136825;-77
2023/04/06 22:35:45;;;;;;;44.10;24.53;;;;;;;5.88;72.14;101121.37;4895980;58;1136875;-77
2023/04/06 22:40:50;;;;;;;14.87;7.50;;;;;;;5.79;73.89;101117.86;4814768;59;1138911;-76
2023/04/06 22:45:56;;;;;;;18.43;7.13;;;;;;;5.76;73.88;101104.02;4810102;59;1136903;-76
2023/04/06 22:56:57;;;;;;;16.43;6.10;;;;;;;5.78;75.56;101110.91;4545769;60;1136670;-77
2023/04/06 23:02:03;;;;;;;40.75;22.75;;;;;;;5.65;76.55;101102.74;4684207;60;1136818;-78
2023/04/06 23:07:13;;;;;;;36.57;17.53;;;;;;;5.58;76.52;101102.66;4695000;60;1138942;-77